Time;durP1;ratioP1;P1;durP2;ratioP2;P2;SDS_P1;SDS_P2;PMS_P1;PMS_P2;Temp;Humidity;BMP_temperature;BMP_pressure;BME280_temperature;BME280_humidity;BME280_pressure;Samples;Min_cycle;Max_cycle;Signal;HPM_P1;HPM_P2
2022/10/31 00:01:26;;;;;;;19.35;12.07;;;;;;;;;;5056515;28;20128;-78
2022/10/31 00:03:51;;;;;;;20.45;13.45;;;;;;;;;;5055499;28;20024;-77
2022/10/31 00:06:19;;;;;;;17.85;12.88;;;;;;;;;;5054038;28;20929;-77
2022/10/31 00:08:51;;;;;;;24.90;12.98;;;;;;;;;;5047402;28;20071;-77
2022/10/31 00:11:17;;;;;;;18.80;11.57;;;;;;;;;;5055527;28;20017;-77
2022/10/31 00:13:42;;;;;;;19.43;13.30;;;;;;;;;;5047222;28;20078;-77
2022/10/31 00:16:13;;;;;;;18.90;13.17;;;;;;;;;;5045230;28;20262;-77
2022/10/31 00:18:38;;;;;;;27.67;14.10;;;;;;;;;;5052070;28;21059;-78
2022/10/31 00:21:03;;;;;;;17.80;13.97;;;;;;;;;;5055338;28;20028;-77
2022/10/31 00:23:28;;;;;;;17.63;12.63;;;;;;;;;;5061782;28;21135;-77
2022/10/31 00:25:54;;;;;;;21.38;13.52;;;;;;;;;;5055519;28;20920;-77
2022/10/31 00:28:19;;;;;;;21.40;14.05;;;;;;;;;;5055720;28;20843;-77
2022/10/31 00:30:44;;;;;;;19.57;14.83;;;;;;;;;;5051771;28;20379;-77
2022/10/31 00:33:09;;;;;;;30.93;14.93;;;;;;;;;;5056828;28;20270;-78
2022/10/31 00:35:35;;;;;;;19.63;13.87;;;;;;;;;;5060018;28;20719;-77
2022/10/31 00:38:00;;;;;;;23.88;15.00;;;;;;;;;;5042479;28;21189;-78
2022/10/31 00:40:25;;;;;;;21.65;14.82;;;;;;;;;;5054660;28;20021;-77
2022/10/31 00:42:50;;;;;;;29.67;17.13;;;;;;;;;;5049785;28;20525;-78
2022/10/31 00:45:16;;;;;;;21.97;15.23;;;;;;;;;;5047776;28;20769;-77
2022/10/31 00:47:41;;;;;;;24.70;16.50;;;;;;;;;;5057804;28;20793;-78
2022/10/31 00:50:07;;;;;;;19.02;14.50;;;;;;;;;;5051794;28;20056;-78
2022/10/31 00:52:32;;;;;;;21.30;14.65;;;;;;;;;;5038918;28;20036;-78
2022/10/31 00:54:57;;;;;;;23.30;16.10;;;;;;;;;;5053489;28;20056;-78
2022/10/31 00:57:22;;;;;;;24.17;15.43;;;;;;;;;;5054266;28;20129;-77
2022/10/31 00:59:48;;;;;;;27.00;14.05;;;;;;;;;;5050461;28;20021;-77
2022/10/31 01:02:13;;;;;;;17.57;13.80;;;;;;;;;;5056621;28;20161;-77
2022/10/31 01:04:38;;;;;;;29.03;14.77;;;;;;;;;;5059875;28;20276;-77
2022/10/31 01:07:03;;;;;;;20.45;15.27;;;;;;;;;;5069561;28;20266;-77
2022/10/31 01:09:29;;;;;;;23.15;15.95;;;;;;;;;;5053315;28;20059;-77
2022/10/31 01:11:54;;;;;;;23.33;17.67;;;;;;;;;;5056876;28;20028;-77
2022/10/31 01:14:19;;;;;;;28.03;17.60;;;;;;;;;;5055716;28;20287;-77
2022/10/31 01:16:44;;;;;;;20.85;16.30;;;;;;;;;;5059839;28;20270;-77
2022/10/31 01:19:09;;;;;;;26.73;15.88;;;;;;;;;;5056842;28;20094;-78
2022/10/31 01:21:35;;;;;;;19.33;16.47;;;;;;;;;;5063613;28;20028;-77
2022/10/31 01:24:03;;;;;;;25.77;16.65;;;;;;;;;;5054820;28;20281;-78
2022/10/31 01:26:33;;;;;;;22.45;16.13;;;;;;;;;;5054345;28;20028;-78
2022/10/31 01:29:00;;;;;;;24.88;16.38;;;;;;;;;;5054000;28;20024;-77
2022/10/31 01:31:26;;;;;;;29.02;16.35;;;;;;;;;;5054737;28;20390;-78
2022/10/31 01:33:52;;;;;;;24.75;15.90;;;;;;;;;;5050663;28;20086;-78
2022/10/31 01:36:19;;;;;;;20.80;15.65;;;;;;;;;;5050611;28;20781;-78
2022/10/31 01:38:45;;;;;;;24.65;16.55;;;;;;;;;;5055198;28;20891;-78
2022/10/31 01:41:12;;;;;;;35.35;16.73;;;;;;;;;;5055007;28;20118;-78
2022/10/31 01:43:44;;;;;;;24.58;16.95;;;;;;;;;;5050249;28;20029;-78
2022/10/31 01:46:10;;;;;;;24.85;15.32;;;;;;;;;;5059391;28;20027;-78
2022/10/31 01:48:35;;;;;;;30.58;17.00;;;;;;;;;;5043869;28;20836;-78
2022/10/31 01:51:03;;;;;;;20.30;16.67;;;;;;;;;;5039809;28;20022;-79
2022/10/31 01:53:28;;;;;;;22.55;16.75;;;;;;;;;;5062508;28;20270;-79
2022/10/31 01:55:53;;;;;;;39.50;17.48;;;;;;;;;;5052704;28;20900;-79
2022/10/31 01:58:22;;;;;;;23.73;16.58;;;;;;;;;;5046465;28;20040;-78
2022/10/31 02:00:49;;;;;;;29.88;17.63;;;;;;;;;;5048252;28;20071;-78
2022/10/31 02:03:15;;;;;;;25.48;16.63;;;;;;;;;;5050582;28;20070;-78
2022/10/31 02:05:41;;;;;;;25.38;19.45;;;;;;;;;;5044998;28;20020;-77
2022/10/31 02:08:06;;;;;;;29.55;18.73;;;;;;;;;;5054121;28;20024;-78
2022/10/31 02:10:32;;;;;;;30.87;17.60;;;;;;;;;;5055630;28;20584;-79
2022/10/31 02:12:58;;;;;;;28.50;17.83;;;;;;;;;;5054243;28;20357;-79
2022/10/31 02:15:23;;;;;;;22.98;17.63;;;;;;;;;;5052709;28;20509;-79
2022/10/31 02:17:48;;;;;;;20.65;15.98;;;;;;;;;;5053549;28;20039;-78
2022/10/31 02:20:21;;;;;;;23.67;17.02;;;;;;;;;;5052323;28;20016;-78
2022/10/31 02:22:46;;;;;;;28.92;17.13;;;;;;;;;;5051086;28;20163;-78
2022/10/31 02:25:34;;;;;;;24.53;18.17;;;;;;;;;;5053366;28;20933;-78
2022/10/31 02:28:20;;;;;;;22.30;17.20;;;;;;;;;;5043484;28;20055;-79
2022/10/31 02:30:55;;;;;;;29.85;17.33;;;;;;;;;;5050675;28;20111;-79
2022/10/31 02:33:20;;;;;;;;;;;;;;;;;;5050338;28;20074;-78
2022/10/31 02:36:05;;;;;;;31.17;17.77;;;;;;;;;;5052209;28;20035;-79
2022/10/31 02:38:30;;;;;;;;;;;;;;;;;;5055560;28;20151;-80
2022/10/31 02:41:01;;;;;;;21.57;16.23;;;;;;;;;;5053318;28;20715;-79
2022/10/31 02:43:33;;;;;;;20.85;15.98;;;;;;;;;;5053193;28;20571;-79
2022/10/31 02:46:10;;;;;;;28.02;18.02;;;;;;;;;;5051753;28;20020;-78
2022/10/31 02:48:37;;;;;;;25.73;17.05;;;;;;;;;;5052861;28;20418;-77
2022/10/31 02:51:04;;;;;;;22.23;17.90;;;;;;;;;;5057821;28;20110;-78
2022/10/31 02:53:35;;;;;;;23.48;17.42;;;;;;;;;;5048883;28;20051;-78
2022/10/31 02:56:06;;;;;;;29.27;18.08;;;;;;;;;;5064953;28;20016;-79
2022/10/31 02:58:32;;;;;;;24.17;16.98;;;;;;;;;;5051543;28;20036;-78
2022/10/31 03:00:58;;;;;;;25.05;16.02;;;;;;;;;;5043293;28;20021;-78
2022/10/31 03:03:26;;;;;;;22.70;15.80;;;;;;;;;;5051343;28;20539;-78
2022/10/31 03:05:58;;;;;;;21.95;17.10;;;;;;;;;;5050769;28;20275;-79
2022/10/31 03:08:47;;;;;;;25.85;17.67;;;;;;;;;;5062410;28;20123;-79
2022/10/31 03:11:13;;;;;;;29.63;16.60;;;;;;;;;;5051665;28;20108;-79
2022/10/31 03:13:45;;;;;;;30.67;18.48;;;;;;;;;;5050727;28;20461;-77
2022/10/31 03:16:10;;;;;;;26.73;18.23;;;;;;;;;;5051552;28;20025;-77
2022/10/31 03:18:40;;;;;;;27.90;19.97;;;;;;;;;;5047330;28;20041;-77
2022/10/31 03:21:12;;;;;;;27.80;21.38;;;;;;;;;;5054195;28;20473;-77
2022/10/31 03:23:39;;;;;;;29.88;22.23;;;;;;;;;;5057335;28;20032;-78
2022/10/31 03:26:05;;;;;;;25.92;20.98;;;;;;;;;;5047903;28;20561;-78
2022/10/31 03:28:34;;;;;;;26.90;21.45;;;;;;;;;;5048458;28;20017;-78
2022/10/31 03:31:01;;;;;;;25.58;18.83;;;;;;;;;;5052089;28;20028;-78
2022/10/31 03:33:27;;;;;;;39.72;20.65;;;;;;;;;;5063491;28;20028;-78
2022/10/31 03:35:55;;;;;;;22.65;20.05;;;;;;;;;;5052591;28;20032;-78
2022/10/31 03:38:21;;;;;;;29.60;19.95;;;;;;;;;;5054174;28;20028;-78
2022/10/31 03:40:48;;;;;;;25.02;20.85;;;;;;;;;;5056953;28;20488;-78
2022/10/31 03:43:18;;;;;;;29.15;20.33;;;;;;;;;;5053537;28;20017;-78
2022/10/31 03:45:45;;;;;;;37.33;22.52;;;;;;;;;;5052803;28;20103;-79
2022/10/31 03:48:10;;;;;;;29.45;21.55;;;;;;;;;;5041251;28;20024;-80
2022/10/31 03:50:45;;;;;;;23.27;17.77;;;;;;;;;;5054838;28;20031;-78
2022/10/31 03:53:16;;;;;;;22.48;16.98;;;;;;;;;;5058583;28;20552;-79
2022/10/31 03:55:47;;;;;;;23.33;15.90;;;;;;;;;;5047698;28;20033;-79
2022/10/31 03:58:18;;;;;;;28.65;17.80;;;;;;;;;;5044089;28;20024;-79
2022/10/31 04:00:45;;;;;;;20.45;17.08;;;;;;;;;;5042611;28;20064;-78
2022/10/31 04:03:14;;;;;;;24.50;18.17;;;;;;;;;;5054816;28;20102;-78
2022/10/31 04:05:40;;;;;;;25.80;17.77;;;;;;;;;;5054811;28;20024;-78
2022/10/31 04:08:08;;;;;;;22.67;16.95;;;;;;;;;;5055264;28;20017;-78
2022/10/31 04:10:34;;;;;;;24.83;18.98;;;;;;;;;;5044575;28;20024;-78
2022/10/31 04:13:05;;;;;;;18.42;15.23;;;;;;;;;;5037631;28;20028;-78
2022/10/31 04:15:31;;;;;;;20.73;17.67;;;;;;;;;;5037611;28;20079;-78
2022/10/31 04:17:58;;;;;;;27.83;17.58;;;;;;;;;;5054248;28;20866;-78
2022/10/31 04:20:33;;;;;;;25.55;18.05;;;;;;;;;;5038714;28;20024;-78
2022/10/31 04:22:59;;;;;;;23.52;18.33;;;;;;;;;;5063833;28;20083;-78
2022/10/31 04:25:24;;;;;;;23.40;17.50;;;;;;;;;;5053934;28;20872;-78
2022/10/31 04:27:49;;;;;;;29.38;17.65;;;;;;;;;;5053354;28;20032;-78
2022/10/31 04:30:15;;;;;;;28.80;18.50;;;;;;;;;;5055534;28;20401;-78
2022/10/31 04:32:40;;;;;;;25.90;19.57;;;;;;;;;;5053444;28;21254;-78
2022/10/31 04:35:05;;;;;;;23.27;19.10;;;;;;;;;;5032696;28;21210;-77
2022/10/31 04:37:30;;;;;;;26.48;19.88;;;;;;;;;;5031235;28;20539;-78
2022/10/31 04:39:56;;;;;;;26.73;19.17;;;;;;;;;;5031988;28;20035;-78
2022/10/31 04:42:21;;;;;;;25.73;19.60;;;;;;;;;;5030824;28;20282;-79
2022/10/31 04:44:46;;;;;;;34.95;20.02;;;;;;;;;;5032475;28;20263;-78
2022/10/31 04:47:11;;;;;;;20.27;16.33;;;;;;;;;;5031924;28;20050;-79
2022/10/31 04:49:37;;;;;;;25.77;18.25;;;;;;;;;;5032787;28;20793;-79
2022/10/31 04:52:02;;;;;;;28.63;19.03;;;;;;;;;;5032513;28;20020;-78
2022/10/31 04:54:27;;;;;;;24.13;18.05;;;;;;;;;;5053626;28;20289;-79
2022/10/31 04:56:52;;;;;;;28.20;19.07;;;;;;;;;;5053237;28;20078;-78
2022/10/31 04:59:18;;;;;;;26.13;18.38;;;;;;;;;;5049459;28;20422;-78
2022/10/31 05:01:43;;;;;;;23.30;16.65;;;;;;;;;;5042873;28;20862;-77
2022/10/31 05:04:08;;;;;;;24.37;16.03;;;;;;;;;;5047299;28;20107;-78
2022/10/31 05:06:33;;;;;;;26.70;16.83;;;;;;;;;;5053861;28;20277;-77
2022/10/31 05:08:58;;;;;;;27.30;18.13;;;;;;;;;;5052160;28;20062;-78
2022/10/31 05:11:24;;;;;;;29.35;19.33;;;;;;;;;;5053785;28;20028;-78
2022/10/31 05:13:49;;;;;;;20.73;14.73;;;;;;;;;;5053287;28;20884;-77
2022/10/31 05:16:14;;;;;;;21.95;15.65;;;;;;;;;;5054504;28;20024;-77
2022/10/31 05:18:39;;;;;;;23.23;16.63;;;;;;;;;;5040581;28;20035;-78
2022/10/31 05:21:05;;;;;;;17.98;16.02;;;;;;;;;;5062738;28;20293;-77
2022/10/31 05:23:30;;;;;;;24.08;16.30;;;;;;;;;;5058742;28;20583;-77
2022/10/31 05:25:55;;;;;;;21.33;16.60;;;;;;;;;;5053073;28;20016;-78
2022/10/31 05:28:20;;;;;;;23.50;16.60;;;;;;;;;;5051374;28;20071;-78
2022/10/31 05:30:45;;;;;;;25.13;18.33;;;;;;;;;;5055588;28;20197;-78
2022/10/31 05:33:11;;;;;;;22.10;16.17;;;;;;;;;;5063807;28;20043;-78
2022/10/31 05:35:36;;;;;;;24.50;16.67;;;;;;;;;;5063105;28;20274;-78
2022/10/31 05:38:01;;;;;;;24.30;16.33;;;;;;;;;;5052276;28;20289;-78
2022/10/31 05:40:27;;;;;;;25.15;17.73;;;;;;;;;;5052617;28;20281;-77
2022/10/31 05:42:53;;;;;;;29.73;17.98;;;;;;;;;;5043870;28;20035;-79
2022/10/31 05:45:18;;;;;;;24.30;17.50;;;;;;;;;;5047088;28;20092;-78
2022/10/31 05:48:10;;;;;;;25.98;20.23;;;;;;;;;;5035067;28;20082;-79
2022/10/31 05:50:35;;;;;;;25.90;17.08;;;;;;;;;;5052422;28;20090;-79
2022/10/31 05:53:02;;;;;;;23.03;17.43;;;;;;;;;;5050620;28;20493;-78
2022/10/31 05:55:28;;;;;;;24.95;16.67;;;;;;;;;;5052292;28;20278;-79
2022/10/31 05:57:53;;;;;;;26.50;18.60;;;;;;;;;;5035891;28;20550;-79
2022/10/31 06:00:18;;;;;;;25.30;15.98;;;;;;;;;;5042115;28;20021;-79
2022/10/31 06:02:44;;;;;;;23.85;17.75;;;;;;;;;;5056895;28;20021;-79
2022/10/31 06:05:09;;;;;;;19.92;16.50;;;;;;;;;;5066388;28;20020;-79
2022/10/31 06:07:35;;;;;;;19.23;14.13;;;;;;;;;;5070349;28;20027;-78
2022/10/31 06:10:00;;;;;;;14.82;13.27;;;;;;;;;;5072804;28;20016;-78
2022/10/31 06:12:26;;;;;;;24.88;16.10;;;;;;;;;;5079722;28;20095;-78
2022/10/31 06:14:51;;;;;;;19.63;17.48;;;;;;;;;;5079203;28;20017;-74
2022/10/31 06:17:16;;;;;;;19.50;15.93;;;;;;;;;;5082345;28;20443;-75
2022/10/31 06:19:41;;;;;;;20.00;16.27;;;;;;;;;;5063488;28;20789;-75
2022/10/31 06:22:06;;;;;;;19.67;15.83;;;;;;;;;;5065124;28;20028;-75
2022/10/31 06:24:32;;;;;;;23.30;16.63;;;;;;;;;;5056210;28;20353;-75
2022/10/31 06:26:57;;;;;;;24.23;16.77;;;;;;;;;;5058971;28;20267;-76
2022/10/31 06:29:22;;;;;;;21.42;17.50;;;;;;;;;;5056329;28;20037;-76
2022/10/31 06:31:50;;;;;;;24.13;18.42;;;;;;;;;;5045903;28;20020;-76
2022/10/31 06:34:15;;;;;;;22.50;13.55;;;;;;;;;;5053015;28;20021;-76
2022/10/31 06:36:41;;;;;;;30.90;15.60;;;;;;;;;;5066531;28;20039;-74
2022/10/31 06:39:06;;;;;;;19.43;14.53;;;;;;;;;;5054679;28;20025;-78
2022/10/31 06:41:31;;;;;;;25.58;16.52;;;;;;;;;;5070284;28;20348;-78
2022/10/31 06:43:56;;;;;;;20.67;17.20;;;;;;;;;;5080029;28;20482;-78
2022/10/31 06:46:22;;;;;;;22.87;15.40;;;;;;;;;;5066814;28;20016;-78
2022/10/31 06:48:47;;;;;;;22.07;15.97;;;;;;;;;;5062997;28;20316;-78
2022/10/31 06:51:12;;;;;;;19.97;15.80;;;;;;;;;;5071259;28;20267;-78
2022/10/31 06:53:37;;;;;;;22.55;17.90;;;;;;;;;;5071852;28;20404;-78
2022/10/31 06:56:03;;;;;;;28.30;17.95;;;;;;;;;;5071043;28;20024;-72
2022/10/31 06:58:28;;;;;;;20.83;16.00;;;;;;;;;;5072003;28;20070;-74
2022/10/31 07:00:53;;;;;;;25.87;16.73;;;;;;;;;;5071758;28;20463;-78
2022/10/31 07:03:20;;;;;;;23.13;17.02;;;;;;;;;;5071723;28;20609;-78
2022/10/31 07:05:45;;;;;;;27.38;18.50;;;;;;;;;;5068491;28;20024;-79
2022/10/31 07:08:12;;;;;;;28.08;19.00;;;;;;;;;;5067164;28;20055;-79
2022/10/31 07:10:39;;;;;;;27.30;18.40;;;;;;;;;;5070496;28;20020;-72
2022/10/31 07:13:05;;;;;;;24.27;17.80;;;;;;;;;;5064913;28;20429;-79
2022/10/31 07:15:33;;;;;;;28.60;17.92;;;;;;;;;;5071471;28;20100;-79
2022/10/31 07:17:59;;;;;;;25.67;19.25;;;;;;;;;;5071180;28;20013;-79
2022/10/31 07:20:24;;;;;;;28.90;18.20;;;;;;;;;;5067187;28;20118;-79
2022/10/31 07:22:49;;;;;;;26.85;18.60;;;;;;;;;;5064243;28;20114;-79
2022/10/31 07:25:15;;;;;;;23.70;17.23;;;;;;;;;;5070981;28;20012;-79
2022/10/31 07:27:41;;;;;;;28.27;18.48;;;;;;;;;;5081617;28;20269;-79
2022/10/31 07:30:07;;;;;;;25.60;17.75;;;;;;;;;;5071447;28;20071;-79
2022/10/31 07:32:49;;;;;;;23.02;18.30;;;;;;;;;;5075300;28;20012;-79
2022/10/31 07:35:15;;;;;;;25.33;18.63;;;;;;;;;;5075161;28;20012;-79
2022/10/31 07:37:40;;;;;;;23.88;20.83;;;;;;;;;;5074516;28;20063;-79
2022/10/31 07:40:06;;;;;;;26.90;19.00;;;;;;;;;;5072198;28;20044;-78
2022/10/31 07:42:38;;;;;;;23.58;19.35;;;;;;;;;;5083490;28;20371;-79
2022/10/31 07:45:04;;;;;;;26.85;20.58;;;;;;;;;;5092626;28;20023;-79
2022/10/31 07:47:29;;;;;;;26.35;20.00;;;;;;;;;;5065232;28;20087;-79
2022/10/31 07:49:54;;;;;;;34.03;21.75;;;;;;;;;;5075218;28;20055;-79
2022/10/31 07:52:20;;;;;;;29.65;22.40;;;;;;;;;;5073961;28;20028;-79
2022/10/31 07:54:45;;;;;;;29.15;24.20;;;;;;;;;;5078812;28;20013;-79
2022/10/31 07:57:10;;;;;;;32.53;23.20;;;;;;;;;;5074604;28;20020;-79
2022/10/31 07:59:35;;;;;;;33.72;26.55;;;;;;;;;;5070215;28;20305;-79
2022/10/31 08:02:01;;;;;;;30.60;25.88;;;;;;;;;;5074923;28;20096;-79
2022/10/31 08:04:26;;;;;;;37.05;27.45;;;;;;;;;;5075302;28;20025;-79
2022/10/31 08:06:51;;;;;;;30.02;24.73;;;;;;;;;;5084392;28;20521;-79
2022/10/31 08:09:16;;;;;;;37.47;26.70;;;;;;;;;;5084419;28;20070;-79
2022/10/31 08:11:42;;;;;;;32.03;25.23;;;;;;;;;;5072382;28;20274;-79
2022/10/31 08:14:07;;;;;;;31.47;25.77;;;;;;;;;;5070694;28;20021;-79
2022/10/31 08:16:32;;;;;;;34.53;27.07;;;;;;;;;;5058942;28;20354;-79
2022/10/31 08:18:57;;;;;;;34.53;28.00;;;;;;;;;;5072054;28;20433;-79
2022/10/31 08:21:22;;;;;;;38.63;29.33;;;;;;;;;;5077349;28;20308;-79
2022/10/31 08:23:48;;;;;;;43.10;33.33;;;;;;;;;;5077524;28;20032;-79
2022/10/31 08:26:13;;;;;;;50.55;34.30;;;;;;;;;;5073532;28;20021;-79
2022/10/31 08:28:38;;;;;;;48.58;37.13;;;;;;;;;;5071504;28;20596;-79
2022/10/31 08:31:04;;;;;;;49.53;35.57;;;;;;;;;;5074795;28;20024;-78
2022/10/31 08:33:29;;;;;;;44.75;35.65;;;;;;;;;;5074764;28;20291;-79
2022/10/31 08:35:57;;;;;;;44.22;34.63;;;;;;;;;;5074009;28;20036;-79
2022/10/31 08:38:22;;;;;;;54.20;34.72;;;;;;;;;;5073214;28;20036;-79
2022/10/31 08:40:49;;;;;;;48.33;34.97;;;;;;;;;;5072725;28;20025;-79
2022/10/31 08:43:15;;;;;;;47.17;35.30;;;;;;;;;;5072758;28;20271;-79
2022/10/31 08:45:40;;;;;;;50.40;35.38;;;;;;;;;;5089119;28;20018;-79
2022/10/31 08:48:08;;;;;;;44.55;31.30;;;;;;;;;;5061273;28;20017;-78
2022/10/31 08:50:34;;;;;;;54.17;37.33;;;;;;;;;;5072850;28;20463;-78
2022/10/31 08:53:18;;;;;;;51.50;36.92;;;;;;;;;;5069255;28;20066;-78
2022/10/31 08:55:44;;;;;;;50.63;38.20;;;;;;;;;;5070652;28;20066;-78
2022/10/31 08:58:11;;;;;;;53.53;37.33;;;;;;;;;;5060851;28;20035;-77
2022/10/31 09:00:36;;;;;;;56.17;39.63;;;;;;;;;;5067299;28;20429;-78
2022/10/31 09:03:03;;;;;;;51.63;40.70;;;;;;;;;;5073434;28;20108;-78
2022/10/31 09:05:29;;;;;;;54.00;38.03;;;;;;;;;;5073820;28;20469;-78
2022/10/31 09:08:01;;;;;;;50.50;38.40;;;;;;;;;;5072829;28;20047;-77
2022/10/31 09:10:28;;;;;;;55.58;39.35;;;;;;;;;;5057169;28;20013;-78
2022/10/31 09:13:06;;;;;;;53.38;38.40;;;;;;;;;;5055368;28;20013;-77
2022/10/31 09:15:31;;;;;;;53.92;38.05;;;;;;;;;;5068751;28;20029;-78
2022/10/31 09:17:56;;;;;;;43.70;35.60;;;;;;;;;;5072940;28;20017;-78
2022/10/31 09:20:22;;;;;;;44.53;34.37;;;;;;;;;;5072951;28;20055;-78
2022/10/31 09:22:47;;;;;;;39.53;33.30;;;;;;;;;;5073054;28;20757;-78
2022/10/31 09:25:12;;;;;;;66.35;33.72;;;;;;;;;;5076772;28;20103;-77
2022/10/31 09:27:38;;;;;;;50.58;32.30;;;;;;;;;;5077679;28;20467;-78
2022/10/31 09:30:03;;;;;;;37.63;31.85;;;;;;;;;;5067115;28;20040;-78
2022/10/31 09:32:31;;;;;;;36.53;28.05;;;;;;;;;;5065742;28;20020;-78
2022/10/31 09:34:56;;;;;;;45.30;31.95;;;;;;;;;;5059708;28;20016;-78
2022/10/31 09:37:22;;;;;;;52.70;27.50;;;;;;;;;;5061656;28;20025;-78
2022/10/31 09:39:47;;;;;;;33.90;27.75;;;;;;;;;;5071977;28;20428;-77
2022/10/31 09:42:31;;;;;;;47.37;29.13;;;;;;;;;;5071707;28;20027;-77
2022/10/31 09:45:15;;;;;;;34.38;27.00;;;;;;;;;;5066956;28;20264;-78
2022/10/31 09:47:51;;;;;;;37.95;27.88;;;;;;;;;;5058286;28;20013;-78
2022/10/31 09:50:20;;;;;;;47.97;28.75;;;;;;;;;;5063631;28;20032;-77
2022/10/31 09:53:05;;;;;;;36.25;29.13;;;;;;;;;;5064885;28;20032;-78
2022/10/31 09:55:44;;;;;;;35.53;26.48;;;;;;;;;;5062158;28;20089;-77
2022/10/31 09:58:18;;;;;;;38.05;26.95;;;;;;;;;;5072403;28;20093;-77
2022/10/31 10:00:44;;;;;;;38.15;27.92;;;;;;;;;;5072299;28;20085;-77
2022/10/31 10:03:12;;;;;;;31.98;24.90;;;;;;;;;;5061156;28;20020;-77
2022/10/31 10:05:41;;;;;;;38.50;28.42;;;;;;;;;;5084224;28;20017;-78
2022/10/31 10:08:20;;;;;;;41.13;27.13;;;;;;;;;;5072192;28;20012;-77
2022/10/31 10:10:50;;;;;;;41.92;29.42;;;;;;;;;;5060537;28;20017;-77
2022/10/31 10:13:30;;;;;;;40.58;27.17;;;;;;;;;;5061745;28;20055;-77
2022/10/31 10:16:01;;;;;;;35.22;26.75;;;;;;;;;;5069929;28;20020;-78
2022/10/31 10:18:37;;;;;;;30.67;23.90;;;;;;;;;;5072705;28;20021;-77
2022/10/31 10:21:42;;;;;;;40.00;25.25;;;;;;;;;;5079836;28;20021;-77
2022/10/31 10:24:26;;;;;;;35.30;22.52;;;;;;;;;;5042665;28;20580;-77
2022/10/31 10:26:57;;;;;;;29.30;22.83;;;;;;;;;;5031598;28;20036;-77
2022/10/31 10:29:40;;;;;;;27.90;24.40;;;;;;;;;;5053891;28;20327;-78
2022/10/31 10:32:10;;;;;;;29.92;21.95;;;;;;;;;;5067078;28;20035;-77
2022/10/31 10:34:46;;;;;;;34.55;21.88;;;;;;;;;;5067114;28;20024;-77
2022/10/31 10:37:14;;;;;;;36.35;24.05;;;;;;;;;;5065131;28;20031;-78
2022/10/31 10:39:45;;;;;;;29.65;23.25;;;;;;;;;;5060559;28;20033;-77
2022/10/31 10:47:43;;;;;;;35.73;21.63;;;;;;;;;;5060036;28;20432;-79
2022/10/31 10:50:08;;;;;;;27.88;20.77;;;;;;;;;;5071484;28;20337;-77
2022/10/31 10:52:52;;;;;;;37.17;22.00;;;;;;;;;;5072089;28;20461;-79
2022/10/31 10:55:26;;;;;;;21.63;14.53;;;;;;;;;;5052081;28;20385;-78
2022/10/31 10:57:54;;;;;;;25.20;18.90;;;;;;;;;;5059746;28;20335;-77
2022/10/31 11:00:30;;;;;;;34.90;22.58;;;;;;;;;;5078304;28;20025;-77
2022/10/31 11:02:56;;;;;;;32.38;20.73;;;;;;;;;;5062542;28;20559;-78
2022/10/31 11:05:32;;;;;;;28.70;21.02;;;;;;;;;;5056443;28;20091;-78
2022/10/31 11:07:58;;;;;;;35.95;22.30;;;;;;;;;;5069470;28;20082;-77
2022/10/31 11:10:23;;;;;;;34.33;22.70;;;;;;;;;;5084502;28;20016;-78
2022/10/31 11:13:20;;;;;;;28.45;21.35;;;;;;;;;;5079437;28;20277;-78
2022/10/31 11:16:06;;;;;;;31.95;20.13;;;;;;;;;;5029964;28;20062;-76
2022/10/31 11:18:36;;;;;;;32.55;18.70;;;;;;;;;;5083282;28;20424;-78
2022/10/31 11:21:03;;;;;;;35.17;20.88;;;;;;;;;;5073196;28;20028;-78
2022/10/31 11:23:29;;;;;;;38.55;19.02;;;;;;;;;;5076190;28;20527;-78
2022/10/31 11:26:02;;;;;;;28.00;19.67;;;;;;;;;;5069715;28;20120;-78
2022/10/31 11:28:32;;;;;;;30.00;18.92;;;;;;;;;;5053663;28;20040;-79
2022/10/31 11:31:05;;;;;;;32.78;19.23;;;;;;;;;;5065574;28;20017;-77
2022/10/31 11:33:32;;;;;;;28.98;19.80;;;;;;;;;;5076027;28;20016;-77
2022/10/31 11:35:58;;;;;;;26.50;18.00;;;;;;;;;;5071766;28;20028;-77
2022/10/31 11:38:24;;;;;;;31.08;18.85;;;;;;;;;;5062618;28;20025;-76
2022/10/31 11:40:51;;;;;;;30.38;19.33;;;;;;;;;;5070146;28;20032;-77
2022/10/31 11:43:17;;;;;;;34.30;20.17;;;;;;;;;;5060034;28;20008;-77
2022/10/31 11:45:42;;;;;;;29.92;18.67;;;;;;;;;;5039053;28;20127;-77
2022/10/31 11:48:18;;;;;;;28.20;18.47;;;;;;;;;;5065472;28;20123;-77
2022/10/31 11:50:48;;;;;;;37.05;19.02;;;;;;;;;;5085733;28;20250;-76
2022/10/31 11:53:24;;;;;;;25.05;18.05;;;;;;;;;;5059098;28;20036;-73
2022/10/31 11:56:00;;;;;;;31.10;17.95;;;;;;;;;;5056203;28;20044;-73
2022/10/31 11:58:25;;;;;;;28.50;19.08;;;;;;;;;;5067178;28;20020;-73
2022/10/31 12:00:53;;;;;;;25.92;18.67;;;;;;;;;;5054413;28;20066;-75
2022/10/31 12:03:41;;;;;;;28.58;20.15;;;;;;;;;;5049983;28;20020;-75
2022/10/31 12:06:13;;;;;;;29.60;20.42;;;;;;;;;;5054501;28;20464;-76
2022/10/31 12:08:39;;;;;;;31.65;19.33;;;;;;;;;;5066309;28;20476;-75
2022/10/31 12:11:17;;;;;;;38.13;18.52;;;;;;;;;;5071183;28;20391;-75
2022/10/31 12:13:45;;;;;;;31.02;20.08;;;;;;;;;;5066020;28;20059;-77
2022/10/31 12:16:19;;;;;;;29.35;20.05;;;;;;;;;;5059596;28;20016;-78
2022/10/31 12:18:47;;;;;;;25.13;19.30;;;;;;;;;;5074320;28;20025;-77
2022/10/31 12:21:22;;;;;;;46.55;19.90;;;;;;;;;;5072109;28;20020;-77
2022/10/31 12:23:47;;;;;;;31.23;18.30;;;;;;;;;;5075764;28;20017;-77
2022/10/31 12:26:22;;;;;;;31.50;18.87;;;;;;;;;;5060541;28;20024;-78
2022/10/31 12:28:56;;;;;;;28.48;19.55;;;;;;;;;;5075085;28;20274;-77
2022/10/31 12:31:21;;;;;;;28.38;18.77;;;;;;;;;;5055346;28;20122;-78
2022/10/31 12:33:59;;;;;;;24.23;17.33;;;;;;;;;;5064854;28;20168;-79
2022/10/31 12:36:43;;;;;;;28.48;18.63;;;;;;;;;;5063442;28;20036;-78
2022/10/31 12:39:14;;;;;;;27.67;16.77;;;;;;;;;;5074137;28;20104;-77
2022/10/31 12:41:39;;;;;;;21.05;14.73;;;;;;;;;;5064985;28;20497;-77
2022/10/31 12:44:10;;;;;;;24.50;14.23;;;;;;;;;;5066732;28;20012;-78
2022/10/31 12:46:54;;;;;;;21.55;12.85;;;;;;;;;;5067527;28;20429;-77
2022/10/31 12:49:31;;;;;;;20.75;13.25;;;;;;;;;;5059338;28;20014;-76
2022/10/31 12:52:15;;;;;;;17.23;12.63;;;;;;;;;;5073166;28;20024;-77
2022/10/31 12:55:06;;;;;;;25.33;13.95;;;;;;;;;;5070476;28;20024;-77
2022/10/31 12:57:35;;;;;;;20.33;12.07;;;;;;;;;;5062668;28;20044;-77
2022/10/31 13:00:04;;;;;;;15.05;12.27;;;;;;;;;;5074893;28;20020;-76
2022/10/31 13:02:35;;;;;;;19.10;12.05;;;;;;;;;;5078881;28;20075;-77
2022/10/31 13:05:10;;;;;;;20.88;13.20;;;;;;;;;;5062606;28;20027;-77
2022/10/31 13:07:41;;;;;;;19.95;11.52;;;;;;;;;;5072230;28;20043;-77
2022/10/31 13:10:12;;;;;;;16.02;11.40;;;;;;;;;;5076112;28;20069;-78
2022/10/31 13:12:38;;;;;;;18.27;10.52;;;;;;;;;;5083135;28;20020;-78
2022/10/31 13:15:05;;;;;;;17.15;11.27;;;;;;;;;;5075384;28;20107;-78
2022/10/31 13:17:34;;;;;;;19.67;11.63;;;;;;;;;;5085584;28;20047;-78
2022/10/31 13:20:12;;;;;;;15.52;10.98;;;;;;;;;;5058663;28;20033;-73
2022/10/31 13:22:37;;;;;;;37.65;11.18;;;;;;;;;;5079839;28;20024;-73
2022/10/31 13:25:09;;;;;;;23.92;13.55;;;;;;;;;;5077843;28;20024;-74
2022/10/31 13:27:40;;;;;;;19.48;11.85;;;;;;;;;;5069236;28;20056;-74
2022/10/31 13:30:14;;;;;;;17.75;11.15;;;;;;;;;;5067432;28;20104;-77
2022/10/31 13:32:42;;;;;;;23.77;12.68;;;;;;;;;;5070665;28;20020;-71
2022/10/31 13:35:13;;;;;;;16.58;11.05;;;;;;;;;;5073322;28;20020;-72
2022/10/31 13:37:44;;;;;;;14.20;10.48;;;;;;;;;;5072459;28;20039;-72
2022/10/31 13:40:28;;;;;;;21.15;11.52;;;;;;;;;;5071268;28;20356;-75
2022/10/31 13:43:16;;;;;;;18.33;10.27;;;;;;;;;;5075041;28;20017;-75
2022/10/31 13:45:49;;;;;;;20.58;11.60;;;;;;;;;;5070365;28;20040;-76
2022/10/31 13:48:14;;;;;;;22.90;10.75;;;;;;;;;;5083014;28;20095;-77
2022/10/31 13:50:40;;;;;;;19.87;11.57;;;;;;;;;;5081468;28;20274;-75
2022/10/31 13:53:17;;;;;;;16.80;10.75;;;;;;;;;;5085516;28;20015;-74
2022/10/31 13:55:44;;;;;;;15.20;9.75;;;;;;;;;;5082909;28;20018;-79
2022/10/31 13:58:24;;;;;;;15.02;9.45;;;;;;;;;;5087743;28;20091;-77
2022/10/31 14:01:02;;;;;;;17.95;10.43;;;;;;;;;;5072026;28;20064;-77
2022/10/31 14:03:28;;;;;;;16.70;9.73;;;;;;;;;;5063148;28;20070;-78
2022/10/31 14:05:55;;;;;;;17.98;9.75;;;;;;;;;;5087924;28;20017;-80
2022/10/31 14:08:22;;;;;;;19.90;10.50;;;;;;;;;;5033381;28;20073;-77
2022/10/31 14:10:49;;;;;;;15.55;9.98;;;;;;;;;;5033515;28;20838;-77
2022/10/31 14:13:17;;;;;;;21.83;9.38;;;;;;;;;;5032020;28;20020;-78
2022/10/31 14:15:52;;;;;;;21.58;10.02;;;;;;;;;;5035885;28;20070;-78
2022/10/31 14:18:37;;;;;;;13.07;8.60;;;;;;;;;;5086371;28;20069;-76
2022/10/31 14:21:13;;;;;;;12.98;8.25;;;;;;;;;;5090621;28;20072;-78
2022/10/31 14:23:40;;;;;;;20.13;9.45;;;;;;;;;;5076253;28;20077;-78
2022/10/31 14:26:17;;;;;;;17.95;9.27;;;;;;;;;;5069137;28;20467;-79
2022/10/31 14:28:43;;;;;;;16.27;8.05;;;;;;;;;;5057110;28;20021;-79
2022/10/31 14:31:27;;;;;;;11.07;8.60;;;;;;;;;;5056886;28;20016;-78
2022/10/31 14:33:52;;;;;;;21.92;9.23;;;;;;;;;;5034719;28;20079;-79